Weather at Syros Airport

Public forecast

Using degrees Celsius for public forecast. Weather courtesy of forecast.io.

Current aviation weather report (METAR) for Syros Airport

Retrieved 2021/01/16 12:20 UTC (30 minutes ago):

LGSO 161220Z AUTO 02020KT //// -RA ////// 08/06 Q1004 RE//

Closest aviation forecast (TAF) to Syros Airport

Forecast is more than 12 hours old.

Closest forecast is Mikonos Airport, 19.0 nm (35.1 km) E. Retrieved 2012/09/27 00:18 UTC (8 years ago):

TAF TAF LGMK 272300Z 2800/2909 36016KT 9999 FEW020